Time;durP1;ratioP1;P1;durP2;ratioP2;P2;SDS_P1;SDS_P2;PMS_P1;PMS_P2;Temp;Humidity;BMP_temperature;BMP_pressure;BME280_temperature;BME280_humidity;BME280_pressure;Samples;Min_cycle;Max_cycle;Signal;HPM_P1;HPM_P2
2023/02/26 00:01:13;;;;;;;;;;;;;;;;;;4976711;28;19918;-86
2023/02/26 00:03:39;;;;;;;;;;;;;;;;;;4992687;28;19988;-87
2023/02/26 00:06:05;;;;;;;;;;;;;;;;;;4976518;28;20370;-88
2023/02/26 00:08:31;;;;;;;;;;;;;;;;;;4994033;28;19922;-86
2023/02/26 00:10:56;;;;;;;;;;;;;;;;;;4994062;28;19925;-86
2023/02/26 00:13:22;;;;;;;;;;;;;;;;;;4993292;28;19921;-86
2023/02/26 00:15:50;;;;;;;;;;;;;;;;;;4993879;28;20299;-86
2023/02/26 00:18:16;;;;;;;;;;;;;;;;;;4994071;28;20008;-87
2023/02/26 00:20:44;;;;;;;;;;;;;;;;;;4994031;28;20387;-87
2023/02/26 00:23:13;;;;;;;;;;;;;;;;;;4992697;28;19918;-87
2023/02/26 00:25:39;;;;;;;;;;;;;;;;;;4993952;28;19918;-87
2023/02/26 00:28:05;;;;;;;;;;;;;;;;;;4992425;28;19921;-89
2023/02/26 00:30:30;;;;;;;;;;;;;;;;;;4993961;28;19973;-86
2023/02/26 00:32:56;;;;;;;;;;;;;;;;;;4993975;28;19921;-87
2023/02/26 00:35:21;;;;;;;;;;;;;;;;;;4993782;28;20001;-87
2023/02/26 00:37:59;;;;;;;;;;;;;;;;;;4993939;28;20017;-87
2023/02/26 00:40:30;;;;;;;;;;;;;;;;;;4993772;28;19918;-87
2023/02/26 00:42:56;;;;;;;;;;;;;;;;;;4993912;28;20033;-87
2023/02/26 00:45:22;;;;;;;;;;;;;;;;;;4992607;28;19930;-87
2023/02/26 00:48:02;;;;;;;;;;;;;;;;;;4993817;28;20392;-86
2023/02/26 00:50:28;;;;;;;;;;;;;;;;;;4992455;28;19918;-87
2023/02/26 00:53:12;;;;;;;;;;;;;;;;;;4993656;28;20297;-85
2023/02/26 00:55:37;;;;;;;;;;;;;;;;;;4993907;28;19921;-87
2023/02/26 00:58:03;;;;;;;;;;;;;;;;;;4993637;28;19918;-86
2023/02/26 01:00:28;;;;;;;;;;;;;;;;;;4993562;28;19925;-86
2023/02/26 01:02:54;;;;;;;;;;;;;;;;;;4993585;28;19948;-88
2023/02/26 01:05:19;;;;;;;;;;;;;;;;;;4993587;28;19914;-87
2023/02/26 01:07:55;;;;;;;;;;;;;;;;;;4976077;28;19918;-86
2023/02/26 01:10:21;;;;;;;;;;;;;;;;;;4993436;28;19918;-87
2023/02/26 01:12:46;;;;;;;;;;;;;;;;;;4993874;28;20024;-87
2023/02/26 01:15:12;;;;;;;;;;;;;;;;;;4976017;28;20284;-87
2023/02/26 01:17:45;;;;;;;;;;;;;;;;;;4993399;28;20369;-87
2023/02/26 01:20:16;;;;;;;;;;;;;;;;;;4993321;28;20361;-88
2023/02/26 01:22:45;;;;;;;;;;;;;;;;;;4993441;28;20408;-87
2023/02/26 01:25:12;;;;;;;;;;;;;;;;;;4995801;28;19917;-88
2023/02/26 01:27:37;;;;;;;;;;;;;;;;;;4995534;28;19926;-88
2023/02/26 01:30:05;;;;;;;;;;;;;;;;;;4995654;28;19918;-86
2023/02/26 01:32:48;;;;;;;;;;;;;;;;;;4996950;28;20009;-86
2023/02/26 01:35:35;;;;;;;;;;;;;;;;;;4997298;28;19918;-86
2023/02/26 01:38:19;;;;;;;;;;;;;;;;;;4995605;28;19948;-89
2023/02/26 01:41:01;;;;;;;;;;;;;;;;;;4996681;28;19944;-88
2023/02/26 01:43:45;;;;;;;;;;;;;;;;;;4979402;28;19921;-88
2023/02/26 01:46:30;;;;;;;;;;;;;;;;;;4996562;28;19969;-88
2023/02/26 01:48:57;;;;;;;;;;;;;;;;;;5005786;28;19967;-88
2023/02/26 01:51:41;;;;;;;;;;;;;;;;;;5016545;28;19913;-87
2023/02/26 01:54:07;;;;;;;;;;;;;;;;;;5017955;28;19918;-86
2023/02/26 01:56:33;;;;;;;;;;;;;;;;;;5016051;28;19921;-86
2023/02/26 01:58:59;;;;;;;;;;;;;;;;;;5007319;28;19961;-87
2023/02/26 02:01:25;;;;;;;;;;;;;;;;;;5000369;28;19976;-88
2023/02/26 02:03:50;;;;;;;;;;;;;;;;;;4996960;28;19918;-87
2023/02/26 02:06:18;;;;;;;;;;;;;;;;;;4996466;28;20591;-87
2023/02/26 02:08:44;;;;;;;;;;;;;;;;;;4996288;28;19918;-87
2023/02/26 02:11:10;;;;;;;;;;;;;;;;;;4996295;28;19929;-86
2023/02/26 02:13:47;;;;;;;;;;;;;;;;;;4996049;28;19917;-86
2023/02/26 02:16:28;;;;;;;;;;;;;;;;;;4978745;28;19925;-87
2023/02/26 02:19:13;;;;;;;;;;;;;;;;;;4996141;28;20028;-86
2023/02/26 02:21:44;;;;;;;;;;;;;;;;;;4996002;28;19925;-89
2023/02/26 02:24:32;;;;;;;;;;;;;;;;;;4995845;28;19922;-88
2023/02/26 02:27:12;;;;;;;;;;;;;;;;;;4994387;28;19988;-87
2023/02/26 02:29:52;;;;;;;;;;;;;;;;;;4995692;28;20447;-86
2023/02/26 02:32:20;;;;;;;;;;;;;;;;;;4995745;28;19918;-86
2023/02/26 02:34:48;;;;;;;;;;;;;;;;;;4995247;28;20330;-87
2023/02/26 02:37:22;;;;;;;;;;;;;;;;;;4978256;28;19918;-87
2023/02/26 02:40:06;;;;;;;;;;;;;;;;;;4994126;28;19921;-87
2023/02/26 02:42:38;;;;;;;;;;;;;;;;;;4978133;28;19922;-86
2023/02/26 02:45:10;;;;;;;;;;;;;;;;;;4995439;28;19968;-90
2023/02/26 02:47:37;;;;;;;;;;;;;;;;;;4995445;28;20374;-87
2023/02/26 02:50:31;;;;;;;;;;;;;;;;;;4995464;28;19925;-87
2023/02/26 02:52:59;;;;;;;;;;;;;;;;;;4982693;28;19921;-87
2023/02/26 02:55:33;;;;;;;;;;;;;;;;;;4995239;28;19986;-86
2023/02/26 02:58:07;;;;;;;;;;;;;;;;;;4995239;28;19914;-87
2023/02/26 03:00:34;;;;;;;;;;;;;;;;;;4995040;28;20365;-87
2023/02/26 03:02:59;;;;;;;;;;;;;;;;;;4995179;28;20347;-87
2023/02/26 03:05:25;;;;;;;;;;;;;;;;;;4977530;28;20021;-87
2023/02/26 03:07:59;;;;;;;;;;;;;;;;;;4995119;28;19925;-88
2023/02/26 03:10:24;;;;;;;;;;;;;;;;;;4977391;28;19964;-86
2023/02/26 03:12:50;;;;;;;;;;;;;;;;;;4993741;28;19956;-87
2023/02/26 03:15:17;;;;;;;;;;;;;;;;;;4993691;28;19953;-88
2023/02/26 03:18:01;;;;;;;;;;;;;;;;;;4994903;28;19964;-88
2023/02/26 03:20:34;;;;;;;;;;;;;;;;;;4994781;28;20328;-87
2023/02/26 03:23:18;;;;;;;;;;;;;;;;;;4993417;28;19926;-87
2023/02/26 03:25:50;;;;;;;;;;;;;;;;;;4993397;28;19980;-86
2023/02/26 03:28:24;;;;;;;;;;;;;;;;;;4977036;28;19926;-88
2023/02/26 03:30:49;;;;;;;;;;;;;;;;;;4994644;28;19941;-86
2023/02/26 03:33:24;;;;;;;;;;;;;;;;;;4994571;28;20369;-87
2023/02/26 03:35:55;;;;;;;;;;;;;;;;;;4994551;28;19917;-87
2023/02/26 03:38:34;;;;;;;;;;;;;;;;;;4993415;28;20360;-87
2023/02/26 03:41:02;;;;;;;;;;;;;;;;;;4991121;28;19969;-86
2023/02/26 03:43:46;;;;;;;;;;;;;;;;;;4975109;28;19922;-88
2023/02/26 03:46:14;;;;;;;;;;;;;;;;;;4996117;28;20020;-87
2023/02/26 03:48:42;;;;;;;;;;;;;;;;;;5013784;28;19952;-86
2023/02/26 03:51:09;;;;;;;;;;;;;;;;;;5013868;28;19921;-88
2023/02/26 03:53:40;;;;;;;;;;;;;;;;;;4996349;28;20340;-87
2023/02/26 03:56:19;;;;;;;;;;;;;;;;;;4996281;28;19917;-87
2023/02/26 03:58:45;;;;;;;;;;;;;;;;;;5013792;28;19924;-88
2023/02/26 04:01:19;;;;;;;;;;;;;;;;;;5002297;28;20016;-86
2023/02/26 04:03:47;;;;;;;;;;;;;;;;;;4992807;28;19957;-89
2023/02/26 04:06:13;;;;;;;;;;;;;;;;;;4994094;28;19972;-87
2023/02/26 04:08:39;;;;;;;;;;;;;;;;;;4976660;28;20377;-87
2023/02/26 04:11:06;;;;;;;;;;;;;;;;;;4993964;28;19965;-88
2023/02/26 04:13:32;;;;;;;;;;;;;;;;;;4976274;28;19921;-88
2023/02/26 04:15:57;;;;;;;;;;;;;;;;;;5004558;28;19928;-88
2023/02/26 04:18:23;;;;;;;;;;;;;;;;;;4995931;28;19928;-87
2023/02/26 04:20:48;;;;;;;;;;;;;;;;;;4995915;28;19929;-88
2023/02/26 04:23:14;;;;;;;;;;;;;;;;;;5013482;28;19924;-87
2023/02/26 04:25:39;;;;;;;;;;;;;;;;;;5013544;28;19918;-87
2023/02/26 04:28:04;;;;;;;;;;;;;;;;;;5013360;28;20044;-89
2023/02/26 04:30:30;;;;;;;;;;;;;;;;;;4996019;28;20011;-87
2023/02/26 04:32:55;;;;;;;;;;;;;;;;;;5013471;28;19917;-88
2023/02/26 04:35:21;;;;;;;;;;;;;;;;;;5013413;28;19917;-87
2023/02/26 04:37:46;;;;;;;;;;;;;;;;;;5013363;28;19921;-87
2023/02/26 04:40:12;;;;;;;;;;;;;;;;;;5013368;28;20266;-87
2023/02/26 04:42:37;;;;;;;;;;;;;;;;;;4995847;28;19918;-88
2023/02/26 04:45:03;;;;;;;;;;;;;;;;;;4995716;28;19918;-88
2023/02/26 04:47:28;;;;;;;;;;;;;;;;;;4995959;28;19917;-89
2023/02/26 04:49:53;;;;;;;;;;;;;;;;;;4995950;28;20025;-87
2023/02/26 04:52:19;;;;;;;;;;;;;;;;;;5013628;28;19917;-87
2023/02/26 04:54:44;;;;;;;;;;;;;;;;;;5013483;28;20368;-87
2023/02/26 04:57:10;;;;;;;;;;;;;;;;;;5013268;28;19921;-87
2023/02/26 04:59:37;;;;;;;;;;;;;;;;;;5016162;28;19921;-88
2023/02/26 05:02:02;;;;;;;;;;;;;;;;;;5017036;28;19917;-89
2023/02/26 05:04:28;;;;;;;;;;;;;;;;;;4999464;28;19923;-88
2023/02/26 05:06:53;;;;;;;;;;;;;;;;;;5017108;28;19917;-86
2023/02/26 05:09:19;;;;;;;;;;;;;;;;;;5017227;28;19965;-86
2023/02/26 05:11:44;;;;;;;;;;;;;;;;;;5016768;28;20277;-87
2023/02/26 05:14:09;;;;;;;;;;;;;;;;;;5016827;28;19924;-87
2023/02/26 05:16:35;;;;;;;;;;;;;;;;;;5016644;28;19921;-87
2023/02/26 05:19:00;;;;;;;;;;;;;;;;;;5016669;28;20357;-87
2023/02/26 05:21:26;;;;;;;;;;;;;;;;;;5016654;28;20221;-88
2023/02/26 05:23:51;;;;;;;;;;;;;;;;;;5016469;28;20438;-88
2023/02/26 05:26:16;;;;;;;;;;;;;;;;;;5016557;28;20012;-89
2023/02/26 05:28:44;;;;;;;;;;;;;;;;;;5016175;28;20020;-87
2023/02/26 05:31:10;;;;;;;;;;;;;;;;;;5016385;28;19969;-88
2023/02/26 05:33:35;;;;;;;;;;;;;;;;;;5016323;28;19953;-88
2023/02/26 05:36:01;;;;;;;;;;;;;;;;;;5016263;28;19917;-87
2023/02/26 05:38:26;;;;;;;;;;;;;;;;;;4998478;28;19928;-86
2023/02/26 05:40:54;;;;;;;;;;;;;;;;;;5016179;28;20304;-87
2023/02/26 05:43:20;;;;;;;;;;;;;;;;;;5016204;28;19917;-88
2023/02/26 05:45:45;;;;;;;;;;;;;;;;;;5016190;28;19925;-87
2023/02/26 05:48:12;;;;;;;;;;;;;;;;;;5016076;28;20304;-87
2023/02/26 05:50:37;;;;;;;;;;;;;;;;;;5015992;28;20373;-88
2023/02/26 05:53:03;;;;;;;;;;;;;;;;;;5016798;28;19923;-87
2023/02/26 05:55:28;;;;;;;;;;;;;;;;;;4998990;28;19917;-87
2023/02/26 05:57:53;;;;;;;;;;;;;;;;;;5016635;28;19917;-87
2023/02/26 06:00:19;;;;;;;;;;;;;;;;;;4998614;28;19967;-87
2023/02/26 06:02:44;;;;;;;;;;;;;;;;;;5016013;28;19921;-87
2023/02/26 06:05:10;;;;;;;;;;;;;;;;;;4998417;28;19975;-88
2023/02/26 06:07:35;;;;;;;;;;;;;;;;;;4998871;28;19925;-88
2023/02/26 06:10:01;;;;;;;;;;;;;;;;;;5024467;28;19917;-88
2023/02/26 06:12:26;;;;;;;;;;;;;;;;;;5031690;28;19925;-88
2023/02/26 06:14:52;;;;;;;;;;;;;;;;;;5034320;28;19925;-88
2023/02/26 06:17:17;;;;;;;;;;;;;;;;;;5039929;28;19926;-88
2023/02/26 06:19:43;;;;;;;;;;;;;;;;;;5025336;28;19922;-87
2023/02/26 06:22:09;;;;;;;;;;;;;;;;;;4978483;28;19918;-88
2023/02/26 06:24:34;;;;;;;;;;;;;;;;;;4977755;28;19924;-89
2023/02/26 06:26:59;;;;;;;;;;;;;;;;;;4977136;28;20296;-88
2023/02/26 06:29:25;;;;;;;;;;;;;;;;;;4976829;28;19973;-88
2023/02/26 06:31:50;;;;;;;;;;;;;;;;;;4976459;28;19925;-88
2023/02/26 06:34:16;;;;;;;;;;;;;;;;;;4959041;28;19918;-87
2023/02/26 06:36:41;;;;;;;;;;;;;;;;;;4976428;28;19957;-87
2023/02/26 06:39:07;;;;;;;;;;;;;;;;;;4959075;28;19949;-87
2023/02/26 06:41:32;;;;;;;;;;;;;;;;;;4976336;28;19976;-88
2023/02/26 06:43:58;;;;;;;;;;;;;;;;;;4976069;28;20385;-87
2023/02/26 06:46:23;;;;;;;;;;;;;;;;;;4974991;28;19968;-88
2023/02/26 06:48:48;;;;;;;;;;;;;;;;;;4976002;28;19972;-88
2023/02/26 06:51:14;;;;;;;;;;;;;;;;;;4976016;28;19964;-88
2023/02/26 06:53:39;;;;;;;;;;;;;;;;;;4976009;28;20001;-88
2023/02/26 06:56:05;;;;;;;;;;;;;;;;;;4958670;28;20069;-89
2023/02/26 06:58:30;;;;;;;;;;;;;;;;;;4975792;28;19918;-88
2023/02/26 07:00:55;;;;;;;;;;;;;;;;;;4975997;28;20293;-87
2023/02/26 07:03:21;;;;;;;;;;;;;;;;;;4975565;28;20370;-87
2023/02/26 07:05:47;;;;;;;;;;;;;;;;;;4974376;28;19922;-85
2023/02/26 07:08:12;;;;;;;;;;;;;;;;;;4977732;28;19949;-88
2023/02/26 07:10:38;;;;;;;;;;;;;;;;;;4996579;28;19933;-87
2023/02/26 07:13:04;;;;;;;;;;;;;;;;;;4999763;28;19959;-87
2023/02/26 07:15:29;;;;;;;;;;;;;;;;;;4983995;28;20382;-87
2023/02/26 07:17:54;;;;;;;;;;;;;;;;;;4976990;28;19922;-86
2023/02/26 07:20:21;;;;;;;;;;;;;;;;;;4976326;28;19978;-88
2023/02/26 07:22:47;;;;;;;;;;;;;;;;;;4975660;28;19922;-87
2023/02/26 07:25:12;;;;;;;;;;;;;;;;;;4982355;28;19922;-86
2023/02/26 07:27:38;;;;;;;;;;;;;;;;;;4989615;28;20040;-88
2023/02/26 07:30:04;;;;;;;;;;;;;;;;;;4988487;28;19985;-87
2023/02/26 07:32:30;;;;;;;;;;;;;;;;;;4988129;28;19921;-88
2023/02/26 07:34:55;;;;;;;;;;;;;;;;;;4989023;28;19933;-86
2023/02/26 07:37:21;;;;;;;;;;;;;;;;;;4988991;28;19933;-87
2023/02/26 07:39:46;;;;;;;;;;;;;;;;;;4967765;28;19934;-88
2023/02/26 07:42:12;;;;;;;;;;;;;;;;;;4997271;28;19925;-87
2023/02/26 07:44:37;;;;;;;;;;;;;;;;;;4997231;28;19925;-87
2023/02/26 07:47:03;;;;;;;;;;;;;;;;;;4999421;28;19975;-88
2023/02/26 07:49:28;;;;;;;;;;;;;;;;;;4981795;28;20013;-87
2023/02/26 07:51:53;;;;;;;;;;;;;;;;;;4989490;28;20016;-88
2023/02/26 07:54:21;;;;;;;;;;;;;;;;;;4987080;28;21398;-88
2023/02/26 07:56:52;;;;;;;;;;;;;;;;;;4988128;28;19929;-85
2023/02/26 07:59:18;;;;;;;;;;;;;;;;;;5006783;28;20288;-87
2023/02/26 08:01:46;;;;;;;;;;;;;;;;;;4997602;28;19925;-88
2023/02/26 08:04:11;;;;;;;;;;;;;;;;;;4999574;28;21523;-87
2023/02/26 08:06:37;;;;;;;;;;;;;;;;;;4998819;28;19925;-88
2023/02/26 08:09:02;;;;;;;;;;;;;;;;;;4999954;28;19917;-87
2023/02/26 08:11:28;;;;;;;;;;;;;;;;;;4982224;28;19965;-87
2023/02/26 08:13:53;;;;;;;;;;;;;;;;;;5009238;28;19964;-85
2023/02/26 08:16:19;;;;;;;;;;;;;;;;;;4980032;28;20020;-88
2023/02/26 08:18:44;;;;;;;;;;;;;;;;;;4963268;28;19918;-87
2023/02/26 08:21:10;;;;;;;;;;;;;;;;;;5000141;28;19917;-88
2023/02/26 08:23:36;;;;;;;;;;;;;;;;;;4999354;28;20001;-87
2023/02/26 08:26:02;;;;;;;;;;;;;;;;;;4992287;28;19942;-87
2023/02/26 08:28:28;;;;;;;;;;;;;;;;;;4994795;28;19928;-87
2023/02/26 08:30:54;;;;;;;;;;;;;;;;;;4997974;28;20441;-88
2023/02/26 08:33:20;;;;;;;;;;;;;;;;;;5000011;28;19925;-86
2023/02/26 08:35:46;;;;;;;;;;;;;;;;;;4981003;28;19965;-89
2023/02/26 08:38:11;;;;;;;;;;;;;;;;;;5000925;28;19918;-86
2023/02/26 08:40:36;;;;;;;;;;;;;;;;;;5001775;28;19925;-86
2023/02/26 08:43:02;;;;;;;;;;;;;;;;;;5017501;28;19972;-87
2023/02/26 08:45:28;;;;;;;;;;;;;;;;;;5001275;28;19922;-86
2023/02/26 08:47:54;;;;;;;;;;;;;;;;;;5015865;28;20310;-86
2023/02/26 08:50:20;;;;;;;;;;;;;;;;;;5012916;28;20340;-86
2023/02/26 08:52:45;;;;;;;;;;;;;;;;;;5002861;28;19929;-87
2023/02/26 08:55:10;;;;;;;;;;;;;;;;;;4983051;28;19926;-87
2023/02/26 08:57:36;;;;;;;;;;;;;;;;;;4998504;28;19925;-87
2023/02/26 09:00:03;;;;;;;;;;;;;;;;;;5008855;28;20364;-87
2023/02/26 09:02:29;;;;;;;;;;;;;;;;;;5003290;28;19992;-86
2023/02/26 09:04:54;;;;;;;;;;;;;;;;;;5003053;28;20389;-86
2023/02/26 09:07:20;;;;;;;;;;;;;;;;;;4998940;28;19913;-86
2023/02/26 09:09:45;;;;;;;;;;;;;;;;;;4984225;28;20008;-85
2023/02/26 09:12:10;;;;;;;;;;;;;;;;;;4999921;28;19917;-86
2023/02/26 09:14:36;;;;;;;;;;;;;;;;;;4999191;28;20366;-88
2023/02/26 09:17:01;;;;;;;;;;;;;;;;;;5016941;28;20039;-89
2023/02/26 09:19:27;;;;;;;;;;;;;;;;;;5016802;28;19929;-87
2023/02/26 09:21:52;;;;;;;;;;;;;;;;;;4999087;28;19921;-87
2023/02/26 09:24:18;;;;;;;;;;;;;;;;;;5016706;28;19924;-87
2023/02/26 09:26:43;;;;;;;;;;;;;;;;;;5016711;28;19930;-87
2023/02/26 09:29:10;;;;;;;;;;;;;;;;;;4998946;28;19921;-88
2023/02/26 09:31:35;;;;;;;;;;;;;;;;;;5016710;28;19922;-87
2023/02/26 09:34:01;;;;;;;;;;;;;;;;;;4999068;28;20248;-86
2023/02/26 09:36:26;;;;;;;;;;;;;;;;;;4999490;28;19921;-86
2023/02/26 09:38:52;;;;;;;;;;;;;;;;;;5016978;28;20012;-89
2023/02/26 09:41:29;;;;;;;;;;;;;;;;;;5017365;28;19917;-88
2023/02/26 09:44:08;;;;;;;;;;;;;;;;;;5017359;28;20492;-87
2023/02/26 09:46:46;;;;;;;;;;;;;;;;;;5015850;28;19954;-86
2023/02/26 09:49:29;;;;;;;;;;;;;;;;;;5016339;28;19976;-87
2023/02/26 09:52:03;;;;;;;;;;;;;;;;;;4998493;28;19921;-90
2023/02/26 09:54:31;;;;;;;;;;;;;;;;;;5016087;28;20393;-88
2023/02/26 09:57:09;;;;;;;;;;;;;;;;;;5016199;28;19913;-88
2023/02/26 09:59:34;;;;;;;;;;;;;;;;;;4998592;28;19925;-87
2023/02/26 10:02:06;;;;;;;;;;;;;;;;;;5016322;28;20292;-88
2023/02/26 10:08:41;;;;;;;;;;;;;;;;;;5015899;28;19929;-88
2023/02/26 10:10:53;;;;;;;;;;;;;;;;;;5007448;28;19922;-87
2023/02/26 10:13:24;;;;;;;;;;;;;;;;;;5015698;28;20504;-86
2023/02/26 10:16:03;;;;;;;;;;;;;;;;;;4998081;28;20008;-87
2023/02/26 10:30:36;;;;;;;;;;;;;;;;;;4955081;28;20405;-86
2023/02/26 10:33:24;;;;;;;;;;;;;;;;;;4930228;29;20012;-86
2023/02/26 10:35:54;;;;;;;;;;;;;;;;;;4952803;29;20473;-86
2023/02/26 10:38:23;;;;;;;;;;;;;;;;;;4953591;29;19919;-89
2023/02/26 10:40:51;;;;;;;;;;;;;;;;;;4953887;29;19918;-86
2023/02/26 10:43:34;;;;;;;;;;;;;;;;;;4954701;29;19918;-84
2023/02/26 10:46:25;;;;;;;;;;;;;;;;;;4938735;29;19922;-84
2023/02/26 10:49:15;;;;;;;;;;;;;;;;;;;;;
2023/02/26 10:55:10;;;;;;;;;;;;;;;;;;4920924;28;19924;-84
2023/02/26 11:04:22;;;;;;;;;;;;;;;;;;4928301;29;19923;-84
2023/02/26 11:06:50;;;;;;;;;;;;;;;;;;4919555;29;19930;-84
2023/02/26 11:09:23;;;;;;;;;;;;;;;;;;4935516;29;20302;-84
2023/02/26 11:11:54;;;;;;;;;;;;;;;;;;4937789;29;19919;-85
2023/02/26 11:14:24;;;;;;;;;;;;;;;;;;4927295;29;19923;-83
2023/02/26 11:17:25;;;;;;;;;;;;;;;;;;;;;
2023/02/26 11:23:09;;;;;;;;;;;;;;;;;;4888869;29;19923;-88
2023/02/26 11:25:36;;;;;;;;;;;;;;;;;;4881738;29;20008;-85
2023/02/26 11:28:24;;;;;;;;;;;;;;;;;;4896941;29;19970;-85
2023/02/26 11:31:05;;;;;;;;;;;;;;;;;;4905623;29;20306;-85
2023/02/26 11:34:10;;;;;;;;;;;;;;;;;;4918795;29;19986;-84
2023/02/26 11:36:37;;;;;;;;;;;;;;;;;;4881106;29;19955;-85
2023/02/26 11:43:06;;;;;;;;;;;;;;;;;;;;;
2023/02/26 11:45:34;;;;;;;;;;;;;;;;;;4891980;29;19925;-84
2023/02/26 11:54:28;;;;;;;;;;;;;;;;;;4809843;29;19914;-86
2023/02/26 11:57:07;;;;;;;;;;;;;;;;;;4791893;29;19921;-88
2023/02/26 11:59:39;;;;;;;;;;;;;;;;;;4798569;29;19920;-86
2023/02/26 12:02:14;;;;;;;;;;;;;;;;;;4853881;29;19951;-87
2023/02/26 12:04:43;;;;;;;;;;;;;;;;;;4878142;29;19920;-85
2023/02/26 12:07:12;;;;;;;;;;;;;;;;;;4877923;29;20475;-86
2023/02/26 12:09:38;;;;;;;;;;;;;;;;;;4861694;29;20049;-87
2023/02/26 12:12:24;;;;;;;;;;;;;;;;;;4862087;29;19924;-86
2023/02/26 12:14:55;;;;;;;;;;;;;;;;;;4877583;29;19923;-86
2023/02/26 12:17:31;;;;;;;;;;;;;;;;;;4877782;29;19967;-87
2023/02/26 12:20:07;;;;;;;;;;;;;;;;;;4877669;29;19931;-86
2023/02/26 12:22:44;;;;;;;;;;;;;;;;;;4877737;29;19924;-87
2023/02/26 12:25:28;;;;;;;;;;;;;;;;;;4877362;29;19968;-87
2023/02/26 12:28:31;;;;;;;;;;;;;;;;;;4882427;29;19930;-88
2023/02/26 12:31:14;;;;;;;;;;;;;;;;;;4883965;29;19934;-86
2023/02/26 12:33:58;;;;;;;;;;;;;;;;;;4968417;28;19934;-87
2023/02/26 12:36:41;;;;;;;;;;;;;;;;;;4973174;28;20005;-86
2023/02/26 12:39:25;;;;;;;;;;;;;;;;;;4957239;28;20445;-88
2023/02/26 12:41:58;;;;;;;;;;;;;;;;;;4974523;28;19941;-86
2023/02/26 12:44:42;;;;;;;;;;;;;;;;;;4957946;28;20369;-87
2023/02/26 12:47:26;;;;;;;;;;;;;;;;;;4973052;28;19922;-88
2023/02/26 12:50:07;;;;;;;;;;;;;;;;;;4974407;28;20380;-87
2023/02/26 12:52:32;;;;;;;;;;;;;;;;;;4974584;28;19918;-87
2023/02/26 12:55:38;;;;;;;;;;;;;;;;;;4977130;28;20064;-87
2023/02/26 12:58:09;;;;;;;;;;;;;;;;;;4974783;28;19922;-88
2023/02/26 13:00:41;;;;;;;;;;;;;;;;;;4974867;28;19941;-88
2023/02/26 13:03:32;;;;;;;;;;;;;;;;;;4975252;28;20008;-86
2023/02/26 13:06:00;;;;;;;;;;;;;;;;;;4975886;28;20520;-86
2023/02/26 13:08:45;;;;;;;;;;;;;;;;;;4974507;28;20033;-86
2023/02/26 13:11:13;;;;;;;;;;;;;;;;;;4975605;28;20017;-86
2023/02/26 13:13:59;;;;;;;;;;;;;;;;;;4975867;28;19918;-87
2023/02/26 13:16:37;;;;;;;;;;;;;;;;;;4916060;29;20433;-88
2023/02/26 13:19:12;;;;;;;;;;;;;;;;;;4915928;29;19923;-87
2023/02/26 13:21:40;;;;;;;;;;;;;;;;;;4918765;29;20295;-88
2023/02/26 13:24:25;;;;;;;;;;;;;;;;;;4919002;29;20039;-86
2023/02/26 13:26:52;;;;;;;;;;;;;;;;;;4918553;29;19956;-86
2023/02/26 13:29:17;;;;;;;;;;;;;;;;;;4917564;29;20422;-86
2023/02/26 13:31:59;;;;;;;;;;;;;;;;;;4918008;29;19919;-87
2023/02/26 13:34:42;;;;;;;;;;;;;;;;;;4918336;29;19929;-87
2023/02/26 13:37:22;;;;;;;;;;;;;;;;;;4917711;29;20023;-87
2023/02/26 13:40:05;;;;;;;;;;;;;;;;;;4917540;29;20379;-87
2023/02/26 13:42:42;;;;;;;;;;;;;;;;;;4917908;29;19918;-87
2023/02/26 13:45:19;;;;;;;;;;;;;;;;;;4917930;29;19919;-86
2023/02/26 13:48:00;;;;;;;;;;;;;;;;;;4917626;29;19919;-86
2023/02/26 13:50:47;;;;;;;;;;;;;;;;;;4917862;29;19923;-86
2023/02/26 13:53:41;;;;;;;;;;;;;;;;;;4940060;28;19914;-87
2023/02/26 13:56:19;;;;;;;;;;;;;;;;;;4977270;28;19922;-86
2023/02/26 13:58:52;;;;;;;;;;;;;;;;;;4976963;28;19918;-86
2023/02/26 14:01:18;;;;;;;;;;;;;;;;;;4976973;28;19929;-86
2023/02/26 14:03:52;;;;;;;;;;;;;;;;;;4976752;28;19954;-87
2023/02/26 14:06:36;;;;;;;;;;;;;;;;;;4959336;28;19929;-87
2023/02/26 14:09:20;;;;;;;;;;;;;;;;;;4976620;28;19944;-86
2023/02/26 14:11:54;;;;;;;;;;;;;;;;;;4976683;28;20433;-86
2023/02/26 14:14:20;;;;;;;;;;;;;;;;;;4976682;28;19925;-85
2023/02/26 14:16:54;;;;;;;;;;;;;;;;;;4976581;28;20289;-86
2023/02/26 14:19:26;;;;;;;;;;;;;;;;;;4976579;28;20012;-86
2023/02/26 14:21:56;;;;;;;;;;;;;;;;;;4976632;28;19918;-86
2023/02/26 14:24:37;;;;;;;;;;;;;;;;;;4976426;28;19961;-86
2023/02/26 14:27:08;;;;;;;;;;;;;;;;;;4976727;28;19930;-86
2023/02/26 14:29:38;;;;;;;;;;;;;;;;;;4976138;28;20056;-86
2023/02/26 14:32:10;;;;;;;;;;;;;;;;;;4958320;28;20012;-87
2023/02/26 14:34:56;;;;;;;;;;;;;;;;;;4976249;28;20270;-87
2023/02/26 14:37:23;;;;;;;;;;;;;;;;;;4976370;28;19918;-87
2023/02/26 14:39:53;;;;;;;;;;;;;;;;;;4958648;28;19925;-87
2023/02/26 14:42:34;;;;;;;;;;;;;;;;;;4959010;28;19918;-86
2023/02/26 14:45:13;;;;;;;;;;;;;;;;;;4974980;28;19940;-87
2023/02/26 14:47:47;;;;;;;;;;;;;;;;;;4958889;28;19926;-86
2023/02/26 14:50:24;;;;;;;;;;;;;;;;;;4959103;28;19925;-88
2023/02/26 14:59:37;;;;;;;;;;;;;;;;;;;;;
2023/02/26 15:02:15;;;;;;;;;;;;;;;;;;4935230;29;19919;-87
2023/02/26 15:04:47;;;;;;;;;;;;;;;;;;4935226;29;19923;-87
2023/02/26 15:07:12;;;;;;;;;;;;;;;;;;4935058;29;20374;-87
2023/02/26 15:09:49;;;;;;;;;;;;;;;;;;4935847;29;19925;-87
2023/02/26 15:16:23;;;;;;;;;;;;;;;;;;;;;
2023/02/26 15:18:57;;;;;;;;;;;;;;;;;;4900685;29;19919;-85
2023/02/26 15:21:37;;;;;;;;;;;;;;;;;;4897476;29;19919;-86
2023/02/26 15:24:03;;;;;;;;;;;;;;;;;;4897707;29;19923;-87
2023/02/26 15:26:31;;;;;;;;;;;;;;;;;;4908715;29;19943;-86
2023/02/26 15:29:04;;;;;;;;;;;;;;;;;;4893834;29;19928;-86
2023/02/26 15:31:40;;;;;;;;;;;;;;;;;;4918775;29;19920;-86
2023/02/26 15:34:05;;;;;;;;;;;;;;;;;;4918865;29;19922;-86
2023/02/26 15:36:33;;;;;;;;;;;;;;;;;;4898164;29;19915;-85
2023/02/26 15:38:59;;;;;;;;;;;;;;;;;;4897211;29;20318;-85
2023/02/26 15:41:26;;;;;;;;;;;;;;;;;;4896830;29;19920;-87
2023/02/26 15:44:01;;;;;;;;;;;;;;;;;;4895562;29;19923;-86
2023/02/26 15:46:28;;;;;;;;;;;;;;;;;;4896788;29;19941;-86
2023/02/26 15:48:57;;;;;;;;;;;;;;;;;;4896710;29;19955;-88
2023/02/26 15:51:23;;;;;;;;;;;;;;;;;;4898531;29;20367;-86
2023/02/26 15:53:53;;;;;;;;;;;;;;;;;;4955935;29;19923;-87
2023/02/26 15:56:21;;;;;;;;;;;;;;;;;;4955603;29;19977;-87
2023/02/26 15:59:01;;;;;;;;;;;;;;;;;;4954233;29;19922;-86
2023/02/26 16:01:35;;;;;;;;;;;;;;;;;;4938376;29;19974;-85
2023/02/26 16:04:11;;;;;;;;;;;;;;;;;;4938148;29;19969;-87
2023/02/26 16:06:50;;;;;;;;;;;;;;;;;;4956057;29;20013;-85
2023/02/26 16:09:30;;;;;;;;;;;;;;;;;;4955665;29;20005;-87
2023/02/26 16:12:23;;;;;;;;;;;;;;;;;;4956936;29;19925;-86
2023/02/26 16:17:44;;;;;;;;;;;;;;;;;;4949302;29;19926;-85
2023/02/26 16:20:21;;;;;;;;;;;;;;;;;;4955607;29;20024;-84
2023/02/26 16:22:50;;;;;;;;;;;;;;;;;;4938742;29;20428;-88
2023/02/26 16:26:13;;;;;;;;;;;;;;;;;;4955395;29;19918;-86
2023/02/26 16:29:07;;;;;;;;;;;;;;;;;;4965076;28;20009;-86
2023/02/26 16:31:36;;;;;;;;;;;;;;;;;;4968855;28;19925;-86
2023/02/26 16:38:33;;;;;;;;;;;;;;;;;;;;;
2023/02/26 16:43:37;;;;;;;;;;;;;;;;;;4912154;29;20063;-85
2023/02/26 16:46:05;;;;;;;;;;;;;;;;;;4899295;29;19923;-85
2023/02/26 16:49:08;;;;;;;;;;;;;;;;;;4949828;28;20061;-84
2023/02/26 16:55:18;;;;;;;;;;;;;;;;;;;;;
2023/02/26 16:58:32;;;;;;;;;;;;;;;;;;4897690;29;19923;-86
2023/02/26 17:09:53;;;;;;;;;;;;;;;;;;4844022;29;19926;-87
2023/02/26 17:12:44;;;;;;;;;;;;;;;;;;4828940;29;20294;-86
2023/02/26 17:15:23;;;;;;;;;;;;;;;;;;4828024;29;19963;-87
2023/02/26 17:17:58;;;;;;;;;;;;;;;;;;;;;
2023/02/26 17:20:37;;;;;;;;;;;;;;;;;;4843541;29;19931;-85
2023/02/26 17:23:04;;;;;;;;;;;;;;;;;;4828355;29;19921;-86
2023/02/26 17:25:33;;;;;;;;;;;;;;;;;;4846312;29;19920;-85
2023/02/26 17:28:24;;;;;;;;;;;;;;;;;;4844444;29;20377;-86
2023/02/26 17:31:16;;;;;;;;;;;;;;;;;;4884262;29;19969;-85
2023/02/26 17:33:59;;;;;;;;;;;;;;;;;;;;;
2023/02/26 17:36:29;;;;;;;;;;;;;;;;;;4906694;28;19971;-85
2023/02/26 17:38:54;;;;;;;;;;;;;;;;;;4963683;28;19921;-87
2023/02/26 17:41:56;;;;;;;;;;;;;;;;;;;;;
2023/02/26 17:44:50;;;;;;;;;;;;;;;;;;4978870;28;20012;-86
2023/02/26 17:47:23;;;;;;;;;;;;;;;;;;4975631;28;19973;-85
2023/02/26 17:50:04;;;;;;;;;;;;;;;;;;4960207;28;20028;-86
2023/02/26 17:52:35;;;;;;;;;;;;;;;;;;4960160;28;19941;-87
2023/02/26 17:55:11;;;;;;;;;;;;;;;;;;4977041;28;19919;-85
2023/02/26 17:57:36;;;;;;;;;;;;;;;;;;4959647;28;19918;-86
2023/02/26 18:00:08;;;;;;;;;;;;;;;;;;4962128;28;19929;-85
2023/02/26 18:02:42;;;;;;;;;;;;;;;;;;4977944;28;19922;-85
2023/02/26 18:05:15;;;;;;;;;;;;;;;;;;4975730;28;20005;-86
2023/02/26 18:08:01;;;;;;;;;;;;;;;;;;4959760;28;20017;-86
2023/02/26 18:10:40;;;;;;;;;;;;;;;;;;4970965;28;19918;-87
2023/02/26 18:13:55;;;;;;;;;;;;;;;;;;4961387;28;19930;-87
2023/02/26 18:16:10;;;;;;;;;;;;;;;;;;4971448;28;19972;-85
2023/02/26 18:18:46;;;;;;;;;;;;;;;;;;4977827;28;20380;-85
2023/02/26 18:21:14;;;;;;;;;;;;;;;;;;4976969;28;19925;-85
2023/02/26 18:33:40;;;;;;;;;;;;;;;;;;4823805;29;19925;-87
2023/02/26 18:36:28;;;;;;;;;;;;;;;;;;;;;
2023/02/26 18:38:57;;;;;;;;;;;;;;;;;;4824551;29;19948;-86
2023/02/26 18:48:47;;;;;;;;;;;;;;;;;;;;;
2023/02/26 18:51:55;;;;;;;;;;;;;;;;;;;;;
2023/02/26 18:57:44;;;;;;;;;;;;;;;;;;4707979;30;19985;-87